BEE212 EGBB-EGPH
Flight info
| Callsign | BEE212 |
|---|---|
| Flight time | 0h 53m |
| Altitude | 24000 |
| Route | LUVUM DCT TNT N57 POL N601 INPIP |
| Aircraft | DH8D/M-SDE2E3FGRY/H |
Departure
| Time | 2026-04-25 09:46 |
|---|---|
| Airport | Birmingham Airport (EGBB) |
Arrival
| Time | 2026-04-25 10:40 |
|---|---|
| Airport | Edinburgh Airport (EGPH) |
| Time | Latitude | Longitude | Altitude | Speed | Heading |
|---|---|---|---|---|---|
| 2026-04-25 09:15 | 52.45437 | -1.73950 | 348 ft | 0 kts | 326° |
| 2026-04-25 09:32 | 52.45433 | -1.73946 | 348 ft | 2 kts | 326° |
| 2026-04-25 09:32 | 52.45422 | -1.73934 | 348 ft | 0 kts | 326° |
| 2026-04-25 09:33 | 52.45414 | -1.73922 | 348 ft | 2 kts | 308° |
| 2026-04-25 09:33 | 52.45407 | -1.73901 | 348 ft | 2 kts | 282° |
| 2026-04-25 09:33 | 52.45407 | -1.73877 | 348 ft | 2 kts | 256° |
| 2026-04-25 09:33 | 52.45411 | -1.73858 | 348 ft | 1 kts | 237° |
| 2026-04-25 09:34 | 52.45412 | -1.73857 | 348 ft | 0 kts | 237° |
| 2026-04-25 09:37 | 52.45407 | -1.73865 | 348 ft | 2 kts | 220° |
| 2026-04-25 09:37 | 52.45392 | -1.73880 | 348 ft | 2 kts | 207° |
| 2026-04-25 09:37 | 52.45375 | -1.73898 | 348 ft | 3 kts | 221° |
| 2026-04-25 09:38 | 52.45361 | -1.73926 | 348 ft | 3 kts | 233° |
| 2026-04-25 09:38 | 52.45347 | -1.73958 | 348 ft | 3 kts | 234° |
| 2026-04-25 09:38 | 52.45335 | -1.73993 | 348 ft | 3 kts | 252° |
| 2026-04-25 09:38 | 52.45335 | -1.74036 | 348 ft | 3 kts | 284° |
| 2026-04-25 09:39 | 52.45344 | -1.74074 | 348 ft | 3 kts | 294° |
| 2026-04-25 09:39 | 52.45354 | -1.74108 | 348 ft | 3 kts | 297° |
| 2026-04-25 09:39 | 52.45364 | -1.74140 | 348 ft | 3 kts | 297° |
| 2026-04-25 09:40 | 52.45395 | -1.74239 | 348 ft | 10 kts | 296° |
| 2026-04-25 09:40 | 52.45427 | -1.74344 | 348 ft | 9 kts | 296° |
| 2026-04-25 09:40 | 52.45454 | -1.74431 | 348 ft | 7 kts | 297° |
| 2026-04-25 09:40 | 52.45477 | -1.74505 | 348 ft | 6 kts | 296° |
| 2026-04-25 09:41 | 52.45496 | -1.74567 | 348 ft | 5 kts | 303° |
| 2026-04-25 09:41 | 52.45530 | -1.74618 | 348 ft | 9 kts | 323° |
| 2026-04-25 09:41 | 52.45581 | -1.74675 | 348 ft | 8 kts | 324° |
| 2026-04-25 09:41 | 52.45624 | -1.74723 | 348 ft | 6 kts | 325° |
| 2026-04-25 09:42 | 52.45660 | -1.74764 | 348 ft | 7 kts | 326° |
| 2026-04-25 09:42 | 52.45719 | -1.74828 | 348 ft | 12 kts | 326° |
| 2026-04-25 09:42 | 52.45796 | -1.74912 | 348 ft | 14 kts | 327° |
| 2026-04-25 09:42 | 52.45885 | -1.75005 | 348 ft | 15 kts | 327° |
| 2026-04-25 09:43 | 52.45978 | -1.75108 | 348 ft | 16 kts | 322° |
| 2026-04-25 09:43 | 52.46074 | -1.75226 | 348 ft | 17 kts | 324° |
| 2026-04-25 09:43 | 52.46174 | -1.75343 | 349 ft | 18 kts | 327° |
| 2026-04-25 09:43 | 52.46281 | -1.75457 | 349 ft | 18 kts | 326° |
| 2026-04-25 09:44 | 52.46387 | -1.75574 | 349 ft | 18 kts | 326° |
| 2026-04-25 09:44 | 52.46495 | -1.75692 | 349 ft | 18 kts | 326° |
| 2026-04-25 09:44 | 52.46604 | -1.75812 | 349 ft | 17 kts | 324° |
| 2026-04-25 09:44 | 52.46638 | -1.75962 | 349 ft | 17 kts | 246° |
| 2026-04-25 09:45 | 52.46571 | -1.76083 | 349 ft | 8 kts | 183° |
| 2026-04-25 09:45 | 52.46538 | -1.76063 | 349 ft | 0 kts | 149° |
| 2026-04-25 09:45 | 52.46536 | -1.76060 | 349 ft | 4 kts | 147° |
| 2026-04-25 09:45 | 52.46407 | -1.75919 | 349 ft | 54 kts | 146° |
| 2026-04-25 09:46 | 52.45863 | -1.75321 | 349 ft | 127 kts | 146° |
| 2026-04-25 09:46 | 52.44986 | -1.74375 | 432 ft | 163 kts | 148° |
| 2026-04-25 09:46 | 52.44061 | -1.73309 | 958 ft | 165 kts | 136° |
| 2026-04-25 09:46 | 52.43357 | -1.71751 | 1356 ft | 179 kts | 114° |
| 2026-04-25 09:47 | 52.43031 | -1.69786 | 1876 ft | 183 kts | 98° |
| 2026-04-25 09:47 | 52.42987 | -1.67677 | 2397 ft | 189 kts | 88° |
| 2026-04-25 09:47 | 52.42867 | -1.65391 | 2543 ft | 218 kts | 101° |
| 2026-04-25 09:47 | 52.42499 | -1.62857 | 2656 ft | 241 kts | 96° |
| 2026-04-25 09:48 | 52.42883 | -1.60173 | 3047 ft | 246 kts | 56° |
| 2026-04-25 09:48 | 52.44201 | -1.58466 | 3480 ft | 250 kts | 20° |
| 2026-04-25 09:48 | 52.45927 | -1.58309 | 3904 ft | 252 kts | 350° |
| 2026-04-25 09:48 | 52.47636 | -1.59036 | 4267 ft | 255 kts | 342° |
| 2026-04-25 09:49 | 52.49312 | -1.59989 | 4641 ft | 257 kts | 339° |
| 2026-04-25 09:49 | 52.50964 | -1.61056 | 5007 ft | 258 kts | 339° |
| 2026-04-25 09:49 | 52.52675 | -1.62037 | 5366 ft | 260 kts | 341° |
| 2026-04-25 09:49 | 52.54372 | -1.63026 | 5712 ft | 261 kts | 339° |
| 2026-04-25 09:50 | 52.56071 | -1.64076 | 6064 ft | 263 kts | 339° |
| 2026-04-25 09:50 | 52.57779 | -1.65176 | 6512 ft | 264 kts | 338° |
| 2026-04-25 09:50 | 52.59499 | -1.66317 | 6939 ft | 266 kts | 337° |
| 2026-04-25 09:50 | 52.61194 | -1.67468 | 7362 ft | 268 kts | 337° |
| 2026-04-25 09:51 | 52.62917 | -1.68657 | 7788 ft | 269 kts | 336° |
| 2026-04-25 09:51 | 52.64653 | -1.69870 | 8203 ft | 271 kts | 336° |
| 2026-04-25 09:51 | 52.66386 | -1.71090 | 8614 ft | 273 kts | 336° |
| 2026-04-25 09:51 | 52.68140 | -1.72335 | 9021 ft | 275 kts | 336° |
| 2026-04-25 09:52 | 52.69893 | -1.73586 | 9422 ft | 277 kts | 336° |
| 2026-04-25 09:52 | 52.71729 | -1.74510 | 9784 ft | 280 kts | 354° |
| 2026-04-25 09:52 | 52.73662 | -1.74260 | 10182 ft | 282 kts | 7° |
| 2026-04-25 09:52 | 52.75588 | -1.73813 | 10574 ft | 283 kts | 7° |
| 2026-04-25 09:53 | 52.77555 | -1.73353 | 10937 ft | 286 kts | 7° |
| 2026-04-25 09:53 | 52.79523 | -1.72892 | 11330 ft | 287 kts | 7° |
| 2026-04-25 09:53 | 52.81511 | -1.72429 | 11711 ft | 288 kts | 7° |
| 2026-04-25 09:53 | 52.83498 | -1.71972 | 12077 ft | 289 kts | 6° |
| 2026-04-25 09:54 | 52.85478 | -1.71517 | 12435 ft | 290 kts | 6° |
| 2026-04-25 09:54 | 52.87470 | -1.71062 | 12782 ft | 292 kts | 6° |
| 2026-04-25 09:54 | 52.89490 | -1.70600 | 13126 ft | 293 kts | 6° |
| 2026-04-25 09:54 | 52.91496 | -1.70142 | 13453 ft | 294 kts | 6° |
| 2026-04-25 09:55 | 52.93527 | -1.69679 | 13774 ft | 295 kts | 6° |
| 2026-04-25 09:55 | 52.95580 | -1.69210 | 14079 ft | 297 kts | 6° |
| 2026-04-25 09:55 | 52.97620 | -1.68745 | 14373 ft | 298 kts | 6° |
| 2026-04-25 09:55 | 52.99661 | -1.68279 | 14656 ft | 299 kts | 6° |
| 2026-04-25 09:56 | 53.01735 | -1.67805 | 14935 ft | 300 kts | 6° |
| 2026-04-25 09:56 | 53.03815 | -1.67332 | 15201 ft | 302 kts | 6° |
| 2026-04-25 09:56 | 53.05889 | -1.67334 | 15414 ft | 300 kts | 346° |
| 2026-04-25 09:56 | 53.07862 | -1.68422 | 15679 ft | 300 kts | 338° |
| 2026-04-25 09:57 | 53.09789 | -1.69621 | 15937 ft | 300 kts | 338° |
| 2026-04-25 09:57 | 53.11759 | -1.70854 | 16151 ft | 302 kts | 338° |
| 2026-04-25 09:57 | 53.13713 | -1.72077 | 16379 ft | 303 kts | 338° |
| 2026-04-25 09:57 | 53.15706 | -1.73323 | 16617 ft | 304 kts | 338° |
| 2026-04-25 09:58 | 53.17679 | -1.74555 | 16831 ft | 305 kts | 338° |
| 2026-04-25 09:58 | 53.19668 | -1.75796 | 17045 ft | 306 kts | 338° |
| 2026-04-25 09:58 | 53.21667 | -1.77043 | 17261 ft | 307 kts | 338° |
| 2026-04-25 09:58 | 53.23666 | -1.78291 | 17472 ft | 307 kts | 338° |
| 2026-04-25 09:59 | 53.25664 | -1.79538 | 17671 ft | 308 kts | 338° |
| 2026-04-25 09:59 | 53.27656 | -1.80783 | 17863 ft | 309 kts | 338° |
| 2026-04-25 09:59 | 53.29683 | -1.82051 | 18058 ft | 310 kts | 338° |
| 2026-04-25 09:59 | 53.31718 | -1.83326 | 18248 ft | 311 kts | 338° |
| 2026-04-25 10:00 | 53.33744 | -1.84594 | 18432 ft | 312 kts | 338° |
| 2026-04-25 10:00 | 53.35762 | -1.85859 | 18611 ft | 313 kts | 338° |
| 2026-04-25 10:00 | 53.37816 | -1.87147 | 18787 ft | 314 kts | 338° |
| 2026-04-25 10:00 | 53.39854 | -1.88427 | 18957 ft | 314 kts | 338° |
| 2026-04-25 10:01 | 53.41890 | -1.89707 | 19122 ft | 315 kts | 338° |
| 2026-04-25 10:01 | 53.43950 | -1.91002 | 19285 ft | 316 kts | 338° |
| 2026-04-25 10:01 | 53.46001 | -1.92294 | 19443 ft | 316 kts | 338° |
| 2026-04-25 10:01 | 53.48059 | -1.93592 | 19599 ft | 317 kts | 338° |
| 2026-04-25 10:02 | 53.50127 | -1.94896 | 19753 ft | 317 kts | 338° |
| 2026-04-25 10:02 | 53.52200 | -1.96206 | 19895 ft | 318 kts | 338° |
| 2026-04-25 10:02 | 53.54258 | -1.97508 | 20038 ft | 319 kts | 338° |
| 2026-04-25 10:02 | 53.56345 | -1.98829 | 20176 ft | 319 kts | 338° |
| 2026-04-25 10:03 | 53.58421 | -2.00143 | 20301 ft | 319 kts | 338° |
| 2026-04-25 10:03 | 53.60502 | -2.01462 | 20379 ft | 320 kts | 338° |
| 2026-04-25 10:03 | 53.62577 | -2.02781 | 20469 ft | 320 kts | 338° |
| 2026-04-25 10:03 | 53.64680 | -2.04117 | 20553 ft | 320 kts | 338° |
| 2026-04-25 10:04 | 53.66754 | -2.05436 | 20629 ft | 321 kts | 338° |
| 2026-04-25 10:04 | 53.68853 | -2.06772 | 20702 ft | 321 kts | 337° |
| 2026-04-25 10:04 | 53.70948 | -2.08107 | 20769 ft | 321 kts | 337° |
| 2026-04-25 10:04 | 53.73013 | -2.09425 | 20834 ft | 321 kts | 337° |
| 2026-04-25 10:05 | 53.75116 | -2.10772 | 20984 ft | 317 kts | 337° |
| 2026-04-25 10:05 | 53.77052 | -2.12077 | 21774 ft | 290 kts | 336° |
| 2026-04-25 10:05 | 53.78912 | -2.13353 | 21968 ft | 289 kts | 336° |
| 2026-04-25 10:05 | 53.80775 | -2.14629 | 22155 ft | 288 kts | 336° |
| 2026-04-25 10:06 | 53.82631 | -2.15902 | 22333 ft | 288 kts | 336° |
| 2026-04-25 10:06 | 53.84469 | -2.17162 | 22515 ft | 288 kts | 336° |
| 2026-04-25 10:06 | 53.86334 | -2.18440 | 22701 ft | 289 kts | 336° |
| 2026-04-25 10:06 | 53.88198 | -2.19717 | 22881 ft | 289 kts | 335° |
| 2026-04-25 10:07 | 53.90068 | -2.21000 | 23043 ft | 289 kts | 335° |
| 2026-04-25 10:07 | 53.91912 | -2.22264 | 23178 ft | 290 kts | 335° |
| 2026-04-25 10:07 | 53.93811 | -2.23568 | 23312 ft | 290 kts | 335° |
| 2026-04-25 10:07 | 53.95665 | -2.24842 | 23440 ft | 291 kts | 335° |
| 2026-04-25 10:08 | 53.97542 | -2.26132 | 23562 ft | 291 kts | 335° |
| 2026-04-25 10:08 | 53.99414 | -2.27420 | 23674 ft | 292 kts | 335° |
| 2026-04-25 10:08 | 54.01294 | -2.28716 | 23784 ft | 292 kts | 335° |
| 2026-04-25 10:08 | 54.03198 | -2.30029 | 23891 ft | 292 kts | 335° |
| 2026-04-25 10:09 | 54.05079 | -2.31330 | 23995 ft | 293 kts | 335° |
| 2026-04-25 10:09 | 54.06961 | -2.32633 | 24098 ft | 293 kts | 335° |
| 2026-04-25 10:09 | 54.08844 | -2.33937 | 24195 ft | 294 kts | 335° |
| 2026-04-25 10:09 | 54.10763 | -2.35268 | 24240 ft | 296 kts | 335° |
| 2026-04-25 10:10 | 54.12679 | -2.36599 | 24258 ft | 300 kts | 335° |
| 2026-04-25 10:10 | 54.14606 | -2.37939 | 24263 ft | 303 kts | 335° |
| 2026-04-25 10:10 | 54.16562 | -2.39299 | 24264 ft | 306 kts | 335° |
| 2026-04-25 10:10 | 54.18569 | -2.40693 | 24264 ft | 309 kts | 335° |
| 2026-04-25 10:11 | 54.20569 | -2.42082 | 24255 ft | 311 kts | 335° |
| 2026-04-25 10:11 | 54.22553 | -2.43462 | 24248 ft | 313 kts | 335° |
| 2026-04-25 10:11 | 54.24572 | -2.44867 | 24246 ft | 314 kts | 335° |
| 2026-04-25 10:11 | 54.26596 | -2.46277 | 24245 ft | 315 kts | 335° |
| 2026-04-25 10:12 | 54.28622 | -2.47691 | 24244 ft | 316 kts | 336° |
| 2026-04-25 10:12 | 54.30658 | -2.49113 | 24244 ft | 316 kts | 336° |
| 2026-04-25 10:12 | 54.34740 | -2.51969 | 24241 ft | 318 kts | 336° |
| 2026-04-25 10:13 | 54.36785 | -2.53402 | 24242 ft | 319 kts | 336° |
| 2026-04-25 10:13 | 54.38833 | -2.54838 | 24244 ft | 319 kts | 336° |
| 2026-04-25 10:13 | 54.40876 | -2.56274 | 24246 ft | 320 kts | 336° |
| 2026-04-25 10:13 | 54.42955 | -2.57735 | 24248 ft | 320 kts | 336° |
| 2026-04-25 10:14 | 54.45011 | -2.59182 | 24248 ft | 321 kts | 336° |
| 2026-04-25 10:14 | 54.47057 | -2.60624 | 24246 ft | 322 kts | 336° |
| 2026-04-25 10:14 | 54.49130 | -2.62086 | 24245 ft | 323 kts | 336° |
| 2026-04-25 10:14 | 54.51215 | -2.63559 | 24245 ft | 323 kts | 336° |
| 2026-04-25 10:15 | 54.53286 | -2.65024 | 24245 ft | 324 kts | 335° |
| 2026-04-25 10:15 | 54.55371 | -2.66502 | 24245 ft | 324 kts | 335° |
| 2026-04-25 10:15 | 54.57487 | -2.68002 | 24245 ft | 325 kts | 335° |
| 2026-04-25 10:15 | 54.59583 | -2.69490 | 24246 ft | 325 kts | 335° |
| 2026-04-25 10:16 | 54.61658 | -2.70965 | 24247 ft | 326 kts | 335° |
| 2026-04-25 10:16 | 54.63766 | -2.72465 | 24247 ft | 326 kts | 335° |
| 2026-04-25 10:16 | 54.65849 | -2.73949 | 24248 ft | 326 kts | 335° |
| 2026-04-25 10:16 | 54.67956 | -2.75451 | 24249 ft | 327 kts | 335° |
| 2026-04-25 10:17 | 54.70052 | -2.76946 | 24251 ft | 327 kts | 335° |
| 2026-04-25 10:17 | 54.72141 | -2.78440 | 24252 ft | 327 kts | 335° |
| 2026-04-25 10:17 | 54.74249 | -2.79949 | 24253 ft | 327 kts | 335° |
| 2026-04-25 10:17 | 54.76340 | -2.81448 | 24254 ft | 327 kts | 335° |
| 2026-04-25 10:18 | 54.78446 | -2.82957 | 24255 ft | 327 kts | 335° |
| 2026-04-25 10:18 | 54.80549 | -2.84468 | 24256 ft | 328 kts | 335° |
| 2026-04-25 10:18 | 54.82641 | -2.85971 | 24256 ft | 328 kts | 335° |
| 2026-04-25 10:18 | 54.84748 | -2.87487 | 24257 ft | 328 kts | 335° |
| 2026-04-25 10:19 | 54.86832 | -2.88989 | 24229 ft | 329 kts | 335° |
| 2026-04-25 10:19 | 54.88962 | -2.90526 | 24017 ft | 332 kts | 335° |
| 2026-04-25 10:19 | 54.91063 | -2.92049 | 23761 ft | 323 kts | 335° |
| 2026-04-25 10:19 | 54.93102 | -2.93529 | 23451 ft | 315 kts | 335° |
| 2026-04-25 10:20 | 54.95117 | -2.94992 | 23023 ft | 311 kts | 335° |
| 2026-04-25 10:20 | 54.97088 | -2.96423 | 22579 ft | 307 kts | 335° |
| 2026-04-25 10:20 | 54.99030 | -2.97834 | 22165 ft | 302 kts | 335° |
| 2026-04-25 10:20 | 55.00946 | -2.99227 | 21754 ft | 297 kts | 335° |
| 2026-04-25 10:21 | 55.02842 | -3.00608 | 21331 ft | 292 kts | 335° |
| 2026-04-25 10:21 | 55.04701 | -3.01962 | 20902 ft | 288 kts | 335° |
| 2026-04-25 10:21 | 55.06519 | -3.03287 | 20498 ft | 284 kts | 335° |
| 2026-04-25 10:21 | 55.08321 | -3.04602 | 20110 ft | 279 kts | 335° |
| 2026-04-25 10:22 | 55.10096 | -3.05898 | 19725 ft | 275 kts | 335° |
| 2026-04-25 10:22 | 55.11285 | -3.06767 | 19465 ft | 272 kts | 335° |
| 2026-04-25 10:22 | 55.13580 | -3.08445 | 18957 ft | 267 kts | 335° |
| 2026-04-25 10:22 | 55.15275 | -3.09686 | 18576 ft | 264 kts | 335° |
| 2026-04-25 10:23 | 55.16981 | -3.10934 | 18231 ft | 273 kts | 336° |
| 2026-04-25 10:23 | 55.18776 | -3.12237 | 17921 ft | 288 kts | 336° |
| 2026-04-25 10:23 | 55.20661 | -3.13615 | 17554 ft | 304 kts | 336° |
| 2026-04-25 10:23 | 55.22668 | -3.15086 | 17124 ft | 316 kts | 336° |
| 2026-04-25 10:24 | 55.24721 | -3.16594 | 16683 ft | 324 kts | 336° |
| 2026-04-25 10:24 | 55.26817 | -3.18136 | 16239 ft | 329 kts | 336° |
| 2026-04-25 10:24 | 55.28888 | -3.19633 | 15775 ft | 317 kts | 338° |
| 2026-04-25 10:24 | 55.31020 | -3.20226 | 15291 ft | 308 kts | 360° |
| 2026-04-25 10:25 | 55.33094 | -3.20181 | 14828 ft | 296 kts | 352° |
| 2026-04-25 10:25 | 55.34987 | -3.21337 | 14355 ft | 283 kts | 329° |
| 2026-04-25 10:25 | 55.36595 | -3.23145 | 13901 ft | 273 kts | 325° |
| 2026-04-25 10:25 | 55.38138 | -3.24985 | 13435 ft | 266 kts | 325° |
| 2026-04-25 10:26 | 55.39653 | -3.26799 | 12965 ft | 259 kts | 325° |
| 2026-04-25 10:26 | 55.41116 | -3.28552 | 12500 ft | 253 kts | 324° |
| 2026-04-25 10:26 | 55.42548 | -3.30266 | 12035 ft | 247 kts | 324° |
| 2026-04-25 10:26 | 55.43943 | -3.31933 | 11574 ft | 242 kts | 325° |
| 2026-04-25 10:27 | 55.45324 | -3.33583 | 11108 ft | 237 kts | 325° |
| 2026-04-25 10:27 | 55.46659 | -3.35176 | 10647 ft | 233 kts | 325° |
| 2026-04-25 10:27 | 55.47991 | -3.36766 | 10182 ft | 230 kts | 325° |
| 2026-04-25 10:27 | 55.49297 | -3.38324 | 9720 ft | 226 kts | 325° |
| 2026-04-25 10:28 | 55.50590 | -3.39871 | 9256 ft | 223 kts | 324° |
| 2026-04-25 10:28 | 55.51919 | -3.41455 | 8821 ft | 243 kts | 325° |
| 2026-04-25 10:28 | 55.53365 | -3.43182 | 8396 ft | 261 kts | 325° |
| 2026-04-25 10:28 | 55.54890 | -3.45016 | 7953 ft | 264 kts | 325° |
| 2026-04-25 10:29 | 55.56363 | -3.46801 | 7594 ft | 251 kts | 325° |
| 2026-04-25 10:29 | 55.57780 | -3.48515 | 7269 ft | 239 kts | 325° |
| 2026-04-25 10:29 | 55.59106 | -3.50116 | 6954 ft | 229 kts | 325° |
| 2026-04-25 10:29 | 55.60421 | -3.51699 | 6687 ft | 230 kts | 325° |
| 2026-04-25 10:30 | 55.61754 | -3.53295 | 6446 ft | 236 kts | 325° |
| 2026-04-25 10:30 | 55.62664 | -3.54390 | 6281 ft | 236 kts | 325° |
| 2026-04-25 10:30 | 55.64473 | -3.56570 | 5944 ft | 235 kts | 325° |
| 2026-04-25 10:30 | 55.65810 | -3.58184 | 5694 ft | 235 kts | 325° |
| 2026-04-25 10:31 | 55.67165 | -3.59821 | 5440 ft | 235 kts | 325° |
| 2026-04-25 10:31 | 55.68502 | -3.61441 | 5190 ft | 235 kts | 325° |
| 2026-04-25 10:31 | 55.69844 | -3.63074 | 4854 ft | 232 kts | 325° |
| 2026-04-25 10:31 | 55.71146 | -3.64668 | 4464 ft | 224 kts | 325° |
| 2026-04-25 10:32 | 55.72405 | -3.66212 | 4112 ft | 217 kts | 324° |
| 2026-04-25 10:32 | 55.73634 | -3.67726 | 3888 ft | 215 kts | 324° |
| 2026-04-25 10:32 | 55.74860 | -3.69249 | 3682 ft | 214 kts | 324° |
| 2026-04-25 10:32 | 55.76078 | -3.70781 | 3475 ft | 213 kts | 324° |
| 2026-04-25 10:33 | 55.77264 | -3.72287 | 3275 ft | 211 kts | 324° |
| 2026-04-25 10:33 | 55.78451 | -3.73811 | 3075 ft | 210 kts | 324° |
| 2026-04-25 10:33 | 55.79717 | -3.75052 | 2858 ft | 207 kts | 346° |
| 2026-04-25 10:33 | 55.81121 | -3.75101 | 2654 ft | 202 kts | 15° |
| 2026-04-25 10:34 | 55.82327 | -3.73927 | 2442 ft | 196 kts | 46° |
| 2026-04-25 10:34 | 55.83064 | -3.72035 | 2216 ft | 179 kts | 60° |
| 2026-04-25 10:34 | 55.83696 | -3.70198 | 1982 ft | 169 kts | 57° |
| 2026-04-25 10:34 | 55.84320 | -3.68480 | 1768 ft | 166 kts | 58° |
| 2026-04-25 10:35 | 55.84928 | -3.66731 | 1554 ft | 163 kts | 59° |
| 2026-04-25 10:35 | 55.85514 | -3.65049 | 1341 ft | 161 kts | 58° |
| 2026-04-25 10:35 | 55.86111 | -3.63326 | 1206 ft | 161 kts | 59° |
| 2026-04-25 10:35 | 55.86690 | -3.61678 | 1286 ft | 160 kts | 59° |
| 2026-04-25 10:36 | 55.87264 | -3.60089 | 1835 ft | 143 kts | 60° |
| 2026-04-25 10:36 | 55.87695 | -3.58510 | 2144 ft | 150 kts | 64° |
| 2026-04-25 10:36 | 55.88289 | -3.56815 | 1838 ft | 166 kts | 55° |
| 2026-04-25 10:36 | 55.88985 | -3.55217 | 1368 ft | 154 kts | 57° |
| 2026-04-25 10:37 | 55.89514 | -3.53731 | 1109 ft | 136 kts | 57° |
| 2026-04-25 10:37 | 55.90062 | -3.52163 | 1153 ft | 161 kts | 62° |
| 2026-04-25 10:37 | 55.90648 | -3.50237 | 1108 ft | 193 kts | 62° |
| 2026-04-25 10:37 | 55.91274 | -3.48182 | 1043 ft | 179 kts | 60° |
| 2026-04-25 10:38 | 55.91893 | -3.46405 | 853 ft | 156 kts | 59° |
| 2026-04-25 10:38 | 55.92433 | -3.44859 | 677 ft | 144 kts | 59° |
| 2026-04-25 10:38 | 55.92965 | -3.43253 | 619 ft | 155 kts | 59° |
| 2026-04-25 10:38 | 55.93531 | -3.41564 | 517 ft | 161 kts | 60° |
| 2026-04-25 10:39 | 55.94089 | -3.39945 | 285 ft | 146 kts | 59° |
| 2026-04-25 10:39 | 55.94579 | -3.38505 | 108 ft | 119 kts | 67° |
| 2026-04-25 10:39 | 55.94934 | -3.37419 | 100 ft | 80 kts | 59° |
| 2026-04-25 10:39 | 55.95192 | -3.36665 | 101 ft | 50 kts | 58° |
| 2026-04-25 10:40 | 55.95201 | -3.36361 | 103 ft | 16 kts | 147° |
| 2026-04-25 10:40 | 55.95174 | -3.36332 | 103 ft | 6 kts | 149° |
| 2026-04-25 10:40 | 55.95150 | -3.36308 | 103 ft | 1 kts | 169° |
| 2026-04-25 10:40 | 55.95147 | -3.36308 | 103 ft | 0 kts | 180° |
| 2026-04-25 10:41 | 55.95138 | -3.36257 | 103 ft | 14 kts | 97° |
| 2026-04-25 10:42 | 55.95114 | -3.36114 | 103 ft | 14 kts | 109° |
| 2026-04-25 10:42 | 55.95095 | -3.36008 | 103 ft | 6 kts | 110° |
| 2026-04-25 10:42 | 55.95060 | -3.35884 | 105 ft | 13 kts | 119° |
| 2026-04-25 10:42 | 55.95000 | -3.35847 | 106 ft | 8 kts | 201° |
| 2026-04-25 10:43 | 55.94960 | -3.35986 | 104 ft | 7 kts | 253° |
| 2026-04-25 10:43 | 55.94953 | -3.36026 | 104 ft | 0 kts | 253° |